Time;durP1;ratioP1;P1;durP2;ratioP2;P2;SDS_P1;SDS_P2;PMS_P1;PMS_P2;Temp;Humidity;BMP_temperature;BMP_pressure;BME280_temperature;BME280_humidity;BME280_pressure;Samples;Min_cycle;Max_cycle;Signal;HPM_P1;HPM_P2
2022/11/19 00:00:39;;;;;;;16.88;9.15;;;2.10;99.90;;;;;;5049466;28;20451;-68
2022/11/19 00:03:04;;;;;;;15.70;8.25;;;2.10;99.90;;;;;;5032675;28;20087;-67
2022/11/19 00:05:30;;;;;;;16.63;9.38;;;2.20;99.90;;;;;;5050314;28;20401;-67
2022/11/19 00:07:55;;;;;;;18.15;9.18;;;2.20;99.90;;;;;;5049249;28;20043;-67
2022/11/19 00:10:21;;;;;;;13.43;8.32;;;2.10;99.90;;;;;;5049510;28;20139;-67
2022/11/19 00:12:55;;;;;;;14.77;8.77;;;2.20;99.90;;;;;;5050368;28;20049;-67
2022/11/19 00:15:22;;;;;;;14.23;7.43;;;2.20;99.90;;;;;;5057634;28;20044;-67
2022/11/19 00:17:48;;;;;;;15.65;8.45;;;2.20;99.90;;;;;;5067648;28;20089;-67
2022/11/19 00:20:14;;;;;;;13.68;8.15;;;2.10;99.90;;;;;;5048149;28;20037;-67
2022/11/19 00:22:43;;;;;;;14.10;8.20;;;2.20;99.90;;;;;;5050676;28;20435;-67
2022/11/19 00:25:10;;;;;;;14.80;8.18;;;2.20;99.90;;;;;;5048840;28;20140;-67
2022/11/19 00:27:35;;;;;;;13.23;7.35;;;2.20;99.90;;;;;;5049621;28;20119;-67
2022/11/19 00:30:01;;;;;;;12.88;7.13;;;2.00;99.90;;;;;;5049314;28;20146;-67
2022/11/19 00:32:27;;;;;;;12.32;7.35;;;2.10;99.90;;;;;;5032680;28;20049;-67
2022/11/19 00:34:53;;;;;;;11.57;7.07;;;2.10;99.90;;;;;;5050318;28;20048;-67
2022/11/19 00:37:19;;;;;;;17.38;8.05;;;2.00;99.90;;;;;;5050413;28;20049;-67
2022/11/19 00:39:44;;;;;;;15.32;7.03;;;2.00;99.90;;;;;;5050336;28;20120;-67
2022/11/19 00:42:10;;;;;;;11.50;6.75;;;2.10;99.90;;;;;;5033974;28;20450;-67
2022/11/19 00:44:35;;;;;;;14.57;6.72;;;2.00;99.90;;;;;;5052543;28;20045;-67
2022/11/19 00:47:01;;;;;;;11.48;6.90;;;2.10;99.90;;;;;;5053126;28;20052;-67
2022/11/19 00:49:26;;;;;;;13.02;7.28;;;2.10;99.90;;;;;;5052751;28;20068;-67
2022/11/19 00:51:52;;;;;;;12.75;7.32;;;2.10;99.90;;;;;;5053829;28;20517;-67
2022/11/19 00:54:18;;;;;;;13.38;7.05;;;2.20;99.90;;;;;;5052613;28;20523;-67
2022/11/19 00:56:43;;;;;;;11.70;6.60;;;2.10;99.90;;;;;;5054039;28;20077;-67
2022/11/19 00:59:09;;;;;;;9.50;5.88;;;2.10;99.90;;;;;;5053617;28;20136;-67
2022/11/19 01:01:35;;;;;;;10.45;6.03;;;2.10;99.90;;;;;;5036165;28;20036;-67
2022/11/19 01:04:00;;;;;;;8.60;5.75;;;2.00;99.90;;;;;;5053491;28;20037;-67
2022/11/19 01:06:27;;;;;;;9.25;5.65;;;2.00;99.90;;;;;;5052334;28;20501;-67
2022/11/19 01:08:53;;;;;;;8.75;5.03;;;2.10;99.90;;;;;;5052429;28;20047;-67
2022/11/19 01:11:24;;;;;;;7.88;5.03;;;2.00;99.90;;;;;;5053744;28;20041;-67
2022/11/19 01:13:50;;;;;;;10.00;5.17;;;2.00;99.90;;;;;;5052026;28;20048;-67
2022/11/19 01:16:25;;;;;;;9.35;5.20;;;2.10;99.90;;;;;;5053425;28;20790;-67
2022/11/19 01:18:52;;;;;;;5.85;4.55;;;1.90;99.90;;;;;;5053457;28;20037;-67
2022/11/19 01:21:19;;;;;;;7.65;4.38;;;2.00;99.90;;;;;;5053544;28;20059;-67
2022/11/19 01:23:46;;;;;;;8.50;5.03;;;2.00;99.90;;;;;;5051784;28;20051;-67
2022/11/19 01:26:12;;;;;;;7.68;4.28;;;2.00;99.90;;;;;;5052269;28;20700;-67
2022/11/19 01:28:38;;;;;;;6.60;4.38;;;2.00;99.90;;;;;;5053427;28;20082;-67
2022/11/19 01:31:08;;;;;;;7.38;4.72;;;1.80;99.90;;;;;;5051367;28;20033;-67
2022/11/19 01:33:35;;;;;;;7.20;4.75;;;1.90;99.90;;;;;;5035252;28;20124;-67
2022/11/19 01:36:03;;;;;;;7.60;4.63;;;2.00;99.90;;;;;;5051557;28;20048;-67
2022/11/19 01:38:30;;;;;;;7.45;5.03;;;1.90;99.90;;;;;;5053170;28;20045;-67
2022/11/19 01:40:56;;;;;;;7.25;4.78;;;1.90;99.90;;;;;;5053093;28;20063;-67
2022/11/19 01:43:49;;;;;;;7.43;4.63;;;1.90;99.90;;;;;;5035020;28;20041;-67
2022/11/19 01:46:20;;;;;;;6.88;4.25;;;1.90;99.90;;;;;;5051629;28;20052;-67
2022/11/19 01:48:55;;;;;;;7.88;4.88;;;1.90;99.90;;;;;;5051485;28;20090;-67
2022/11/19 01:51:31;;;;;;;7.30;4.57;;;1.90;99.90;;;;;;5053173;28;20033;-67
2022/11/19 01:54:00;;;;;;;6.60;4.40;;;2.00;99.90;;;;;;5052022;28;20033;-67
2022/11/19 01:56:27;;;;;;;8.98;4.80;;;1.80;99.90;;;;;;5051736;28;20040;-67
2022/11/19 01:59:06;;;;;;;5.25;4.22;;;1.90;99.90;;;;;;5052718;28;20124;-66
2022/11/19 02:01:32;;;;;;;7.32;4.40;;;1.80;99.90;;;;;;5052669;28;20505;-67
2022/11/19 02:04:02;;;;;;;7.88;4.85;;;1.80;99.90;;;;;;5051035;28;20047;-67
2022/11/19 02:06:29;;;;;;;6.78;4.38;;;1.80;99.90;;;;;;5052489;28;20037;-67
2022/11/19 02:08:55;;;;;;;6.13;4.55;;;1.80;99.90;;;;;;5052733;28;20073;-67
2022/11/19 02:11:48;;;;;;;6.03;4.03;;;1.70;99.90;;;;;;5052551;28;20461;-67
2022/11/19 02:14:37;;;;;;;6.10;4.38;;;1.90;99.90;;;;;;5050893;28;20048;-67
2022/11/19 02:17:33;;;;;;;7.28;4.20;;;1.70;99.90;;;;;;5052723;28;20041;-67
2022/11/19 02:20:28;;;;;;;6.38;4.28;;;1.70;99.90;;;;;;5050978;28;20059;-67
2022/11/19 02:23:28;;;;;;;5.22;4.38;;;1.60;99.90;;;;;;5052633;28;20032;-67
2022/11/19 02:26:19;;;;;;;7.15;4.60;;;1.70;99.90;;;;;;5050711;28;20037;-67
2022/11/19 02:28:58;;;;;;;6.80;4.57;;;1.60;99.90;;;;;;5034364;28;20080;-67
2022/11/19 02:31:56;;;;;;;8.13;4.15;;;1.70;99.90;;;;;;5050564;28;20111;-67
2022/11/19 02:34:24;;;;;;;9.63;4.07;;;1.60;99.90;;;;;;5050536;28;20048;-67
2022/11/19 02:37:13;;;;;;;7.20;4.28;;;1.70;99.90;;;;;;5052061;28;20094;-67
2022/11/19 02:39:44;;;;;;;5.80;3.90;;;1.60;99.90;;;;;;5051838;28;20055;-67
2022/11/19 02:42:40;;;;;;;8.10;4.40;;;1.60;99.90;;;;;;5052032;28;20393;-67
2022/11/19 02:45:12;;;;;;;6.32;4.18;;;1.40;99.90;;;;;;5050358;28;20544;-67
2022/11/19 02:47:46;;;;;;;;;;;1.50;99.90;;;;;;5051001;28;20045;-67
2022/11/19 02:50:16;;;;;;;7.72;5.20;;;1.50;99.90;;;;;;5050705;28;19925;-67
2022/11/19 02:52:46;;;;;;;6.40;4.70;;;1.50;99.90;;;;;;5050220;28;20091;-67
2022/11/19 02:55:13;;;;;;;7.85;5.07;;;1.40;99.90;;;;;;5050399;28;20428;-67
2022/11/19 02:57:42;;;;;;;6.55;4.70;;;1.40;99.90;;;;;;5051510;28;20045;-67
2022/11/19 03:06:13;;;;;;;7.57;4.25;;;1.40;99.90;;;;;;5052046;28;20041;-67
2022/11/19 03:08:39;;;;;;;7.13;4.72;;;1.30;99.90;;;;;;5052346;28;20040;-67
2022/11/19 03:11:09;;;;;;;6.93;4.50;;;1.20;99.90;;;;;;5050868;28;20110;-67
2022/11/19 03:16:56;;;;;;;10.38;5.38;;;1.10;99.90;;;;;;5050020;28;20056;-66
2022/11/19 03:19:46;;;;;;;5.88;4.47;;;1.10;99.90;;;;;;5050168;28;20041;-67
2022/11/19 03:22:20;;;;;;;8.32;4.70;;;1.10;99.90;;;;;;5051271;28;20131;-67
2022/11/19 03:25:00;;;;;;;7.45;4.75;;;1.10;99.90;;;;;;5033180;28;20409;-67
2022/11/19 03:27:42;;;;;;;6.88;4.95;;;1.10;99.90;;;;;;5051231;28;20421;-67
2022/11/19 03:30:09;;;;;;;8.65;5.20;;;1.10;99.90;;;;;;5049644;28;20075;-67
2022/11/19 03:32:42;;;;;;;6.70;4.43;;;1.10;99.90;;;;;;5050704;28;20494;-67
2022/11/19 03:35:12;;;;;;;8.15;4.90;;;1.10;99.90;;;;;;5050798;28;20044;-67
2022/11/19 03:37:40;;;;;;;11.18;5.03;;;1.10;99.90;;;;;;5049621;28;20051;-67
2022/11/19 03:40:09;;;;;;;9.45;5.10;;;1.00;99.90;;;;;;5051058;28;20155;-67
2022/11/19 03:42:36;;;;;;;9.20;5.35;;;1.00;99.90;;;;;;5050882;28;20041;-67
2022/11/19 03:45:11;;;;;;;6.53;4.63;;;1.00;99.90;;;;;;5050628;28;20044;-67
2022/11/19 03:47:40;;;;;;;8.80;5.30;;;1.00;99.90;;;;;;5049167;28;20071;-67
2022/11/19 03:50:27;;;;;;;9.05;5.88;;;1.00;99.90;;;;;;5050869;28;20159;-67
2022/11/19 03:52:53;;;;;;;8.90;5.57;;;1.00;99.90;;;;;;5050545;28;20383;-67
2022/11/19 03:55:24;;;;;;;7.85;4.70;;;1.00;99.90;;;;;;5050412;28;20040;-67
2022/11/19 03:57:50;;;;;;;6.25;4.40;;;1.00;99.90;;;;;;5050542;28;20041;-67
2022/11/19 04:00:16;;;;;;;6.50;4.47;;;0.90;99.90;;;;;;5050272;28;20049;-67
2022/11/19 04:02:42;;;;;;;7.47;5.22;;;0.80;99.90;;;;;;5050823;28;20037;-67
2022/11/19 04:05:08;;;;;;;6.43;4.53;;;0.90;99.90;;;;;;5050564;28;20047;-67
2022/11/19 04:07:33;;;;;;;9.32;5.03;;;0.80;99.90;;;;;;5050401;28;20033;-67
2022/11/19 04:09:59;;;;;;;5.97;4.30;;;0.80;99.90;;;;;;5050724;28;20047;-67
2022/11/19 04:12:25;;;;;;;6.65;4.45;;;0.80;99.90;;;;;;5050373;28;20037;-67
2022/11/19 04:14:51;;;;;;;6.47;4.43;;;0.80;99.90;;;;;;5049084;28;20505;-67
2022/11/19 04:17:17;;;;;;;7.50;4.60;;;0.80;99.90;;;;;;5054637;28;20053;-67
2022/11/19 04:19:44;;;;;;;7.85;4.53;;;0.80;99.90;;;;;;5053231;28;20371;-67
2022/11/19 04:22:10;;;;;;;6.50;4.85;;;0.90;99.90;;;;;;5054308;28;20045;-67
2022/11/19 04:24:35;;;;;;;6.65;4.22;;;0.80;99.90;;;;;;5054208;28;20033;-67
2022/11/19 04:27:01;;;;;;;7.32;5.03;;;0.70;99.90;;;;;;5053204;28;20076;-67
2022/11/19 04:29:27;;;;;;;7.32;4.90;;;0.70;99.90;;;;;;5054388;28;20178;-67
2022/11/19 04:31:52;;;;;;;10.15;4.57;;;0.70;99.90;;;;;;5054227;28;20041;-67
2022/11/19 04:34:18;;;;;;;8.40;4.30;;;0.70;99.90;;;;;;5054061;28;20052;-67
2022/11/19 04:36:44;;;;;;;9.27;5.32;;;0.70;99.90;;;;;;5054371;28;20048;-67
2022/11/19 04:39:11;;;;;;;6.65;4.60;;;0.70;99.90;;;;;;5052834;28;20052;-67
2022/11/19 04:41:37;;;;;;;8.90;5.45;;;0.70;99.90;;;;;;5054374;28;20175;-67
2022/11/19 04:44:03;;;;;;;8.13;5.15;;;0.70;99.90;;;;;;5053762;28;20047;-67
2022/11/19 04:46:29;;;;;;;7.82;5.00;;;0.70;99.90;;;;;;5054341;28;20036;-67
2022/11/19 04:48:55;;;;;;;6.80;5.22;;;0.70;99.90;;;;;;5054121;28;20033;-67
2022/11/19 04:51:20;;;;;;;8.45;5.40;;;0.60;99.90;;;;;;5052935;28;20041;-67
2022/11/19 04:53:46;;;;;;;6.57;4.28;;;0.70;99.90;;;;;;5053982;28;20047;-67
2022/11/19 04:56:11;;;;;;;12.00;4.57;;;0.70;99.90;;;;;;5053858;28;20040;-67
2022/11/19 04:58:37;;;;;;;7.28;4.47;;;0.70;99.90;;;;;;5054116;28;20125;-67
2022/11/19 05:01:03;;;;;;;5.85;4.20;;;0.70;99.90;;;;;;5054021;28;20079;-67
2022/11/19 05:03:28;;;;;;;8.82;5.28;;;0.70;99.90;;;;;;5052849;28;20091;-67
2022/11/19 05:05:54;;;;;;;7.22;4.38;;;0.70;99.90;;;;;;5052496;28;20037;-67
2022/11/19 05:08:20;;;;;;;9.93;4.43;;;0.70;99.90;;;;;;5053848;28;20041;-67
2022/11/19 05:10:45;;;;;;;7.53;4.25;;;0.60;99.90;;;;;;5053681;28;20045;-67
2022/11/19 05:13:11;;;;;;;6.95;4.10;;;0.60;99.90;;;;;;5053487;28;20052;-67
2022/11/19 05:15:37;;;;;;;7.35;4.82;;;0.60;99.90;;;;;;5053494;28;20083;-67
2022/11/19 05:18:02;;;;;;;7.22;4.60;;;0.70;99.90;;;;;;5053616;28;20041;-67
2022/11/19 05:20:28;;;;;;;11.07;5.47;;;0.60;99.90;;;;;;5053638;28;20444;-67
2022/11/19 05:22:54;;;;;;;6.43;4.80;;;0.60;99.90;;;;;;5053389;28;20029;-67
2022/11/19 05:25:19;;;;;;;8.52;5.32;;;0.60;99.90;;;;;;5053013;28;20444;-67
2022/11/19 05:27:45;;;;;;;8.65;4.90;;;0.50;99.90;;;;;;5051601;28;20040;-67
2022/11/19 05:30:11;;;;;;;7.43;4.88;;;0.50;99.90;;;;;;5053579;28;20036;-67
2022/11/19 05:32:37;;;;;;;7.35;4.97;;;0.50;99.90;;;;;;5054537;28;20037;-67
2022/11/19 05:35:03;;;;;;;7.70;4.80;;;0.50;99.90;;;;;;5071048;28;20032;-69
2022/11/19 05:37:29;;;;;;;8.38;5.55;;;0.70;99.90;;;;;;5055235;28;20051;-67
2022/11/19 05:39:55;;;;;;;8.88;5.57;;;0.60;99.90;;;;;;5072899;28;20049;-67
2022/11/19 05:42:20;;;;;;;9.05;5.43;;;0.60;99.90;;;;;;5065910;28;20045;-67
2022/11/19 05:44:46;;;;;;;9.45;5.50;;;0.50;99.90;;;;;;5062492;28;20033;-67
2022/11/19 05:47:11;;;;;;;7.75;5.18;;;0.50;99.90;;;;;;5052599;28;20040;-70
2022/11/19 05:49:37;;;;;;;6.50;5.15;;;0.40;99.90;;;;;;5051504;28;20111;-67
2022/11/19 05:52:03;;;;;;;8.35;5.63;;;0.40;99.90;;;;;;5052908;28;20048;-67
2022/11/19 05:54:29;;;;;;;9.63;5.50;;;0.40;99.90;;;;;;5052485;28;20501;-67
2022/11/19 05:56:54;;;;;;;7.22;5.07;;;0.40;99.90;;;;;;5053007;28;20041;-67
2022/11/19 05:59:20;;;;;;;8.10;5.13;;;0.40;99.90;;;;;;5052769;28;20049;-68
2022/11/19 06:01:45;;;;;;;7.57;5.38;;;0.40;99.90;;;;;;5050850;28;20504;-67
2022/11/19 06:04:11;;;;;;;10.65;6.30;;;0.30;99.90;;;;;;5055139;28;20037;-67
2022/11/19 06:06:37;;;;;;;7.30;4.93;;;0.20;99.90;;;;;;5055295;28;20087;-67
2022/11/19 06:09:03;;;;;;;8.48;5.72;;;0.30;99.90;;;;;;5072760;28;20451;-67
2022/11/19 06:11:46;;;;;;;10.15;5.82;;;0.30;99.90;;;;;;5071940;28;20471;-68
2022/11/19 06:14:21;;;;;;;8.00;5.50;;;0.30;99.90;;;;;;5069189;28;20025;-66
2022/11/19 06:16:48;;;;;;;11.68;6.05;;;0.30;99.90;;;;;;5052751;28;20037;-66
2022/11/19 06:19:13;;;;;;;10.65;6.05;;;0.30;99.90;;;;;;5052413;28;20064;-67
2022/11/19 06:21:39;;;;;;;7.78;5.38;;;0.30;99.90;;;;;;5050958;28;20783;-66
2022/11/19 06:24:05;;;;;;;8.10;5.47;;;0.20;99.90;;;;;;5052256;28;20459;-66
2022/11/19 06:26:31;;;;;;;10.27;6.18;;;0.20;99.90;;;;;;5051094;28;20045;-67
2022/11/19 06:28:56;;;;;;;9.23;6.43;;;0.20;99.90;;;;;;5052382;28;20044;-67
2022/11/19 06:31:22;;;;;;;9.75;6.47;;;0.10;99.90;;;;;;5051070;28;20082;-67
2022/11/19 06:33:48;;;;;;;9.35;5.85;;;0.10;99.90;;;;;;5050648;28;20040;-67
2022/11/19 06:36:14;;;;;;;11.63;7.05;;;0.20;99.90;;;;;;5052401;28;20036;-67
2022/11/19 06:38:39;;;;;;;12.80;6.97;;;0.10;99.90;;;;;;5051268;28;20033;-67
2022/11/19 06:41:05;;;;;;;12.35;6.88;;;0.10;99.90;;;;;;5050437;28;20052;-67
2022/11/19 06:43:31;;;;;;;11.02;6.97;;;0.10;99.90;;;;;;5050530;28;20052;-66
2022/11/19 06:45:56;;;;;;;10.70;7.55;;;0.10;99.90;;;;;;5051859;28;20041;-67
2022/11/19 06:48:22;;;;;;;10.60;6.93;;;0.10;99.90;;;;;;5033848;28;20045;-67
2022/11/19 06:50:48;;;;;;;11.77;7.72;;;0.10;99.90;;;;;;5051422;28;20040;-67
2022/11/19 06:53:14;;;;;;;12.60;6.93;;;0.20;99.90;;;;;;5048766;28;20046;-66
2022/11/19 06:55:39;;;;;;;13.43;7.80;;;0.10;99.90;;;;;;5048994;28;20036;-67
2022/11/19 06:58:06;;;;;;;11.10;7.03;;;0.20;99.90;;;;;;5050995;28;20041;-67
2022/11/19 07:00:32;;;;;;;10.98;7.45;;;0.10;99.90;;;;;;5048797;28;20489;-67
2022/11/19 07:02:58;;;;;;;11.45;6.97;;;0.10;99.90;;;;;;5033179;28;20043;-67
2022/11/19 07:05:23;;;;;;;11.68;6.95;;;0.10;99.90;;;;;;5050636;28;20045;-69
2022/11/19 07:07:49;;;;;;;14.38;7.82;;;0.00;99.90;;;;;;5051401;28;20044;-67
2022/11/19 07:10:15;;;;;;;12.82;7.22;;;0.10;99.90;;;;;;5051199;28;20040;-67
2022/11/19 07:12:40;;;;;;;18.17;7.18;;;0.10;99.90;;;;;;5050885;28;20055;-67
2022/11/19 07:15:06;;;;;;;13.85;6.43;;;0.10;99.90;;;;;;5049688;28;20052;-67
2022/11/19 07:17:32;;;;;;;19.67;7.10;;;0.10;99.90;;;;;;5051108;28;20036;-67
2022/11/19 07:19:58;;;;;;;12.07;7.20;;;0.10;99.90;;;;;;5049983;28;20429;-67
2022/11/19 07:22:23;;;;;;;10.65;7.28;;;0.10;99.90;;;;;;5033304;28;20036;-67
2022/11/19 07:24:49;;;;;;;11.95;6.82;;;0.10;99.90;;;;;;5051111;28;20033;-67
2022/11/19 07:27:15;;;;;;;13.88;7.90;;;0.10;99.90;;;;;;5050617;28;20045;-67
2022/11/19 07:29:41;;;;;;;11.43;7.28;;;0.00;99.90;;;;;;5051184;28;20029;-67
2022/11/19 07:32:07;;;;;;;11.68;7.30;;;0.10;99.90;;;;;;5051097;28;20044;-67
2022/11/19 07:34:33;;;;;;;13.23;7.57;;;0.10;99.90;;;;;;5051120;28;20397;-67
2022/11/19 07:36:58;;;;;;;13.13;7.72;;;0.10;99.90;;;;;;5051010;28;20051;-66
2022/11/19 07:39:24;;;;;;;11.45;6.78;;;0.20;99.90;;;;;;5049604;28;20041;-67
2022/11/19 07:44:34;;;;;;;12.23;6.88;;;0.10;99.90;;;;;;5052933;28;20037;-67
2022/11/19 07:46:59;;;;;;;12.13;6.45;;;0.10;99.90;;;;;;5069506;28;20047;-67
2022/11/19 07:49:25;;;;;;;14.15;7.03;;;0.10;99.90;;;;;;5071043;28;20090;-67
2022/11/19 07:51:52;;;;;;;12.38;7.45;;;0.10;99.90;;;;;;5069235;28;20098;-67
2022/11/19 07:54:17;;;;;;;9.73;6.45;;;0.10;99.90;;;;;;5070667;28;20043;-67
2022/11/19 07:56:43;;;;;;;10.43;7.07;;;0.20;99.90;;;;;;5069558;28;20032;-67
2022/11/19 07:59:10;;;;;;;13.75;7.05;;;0.20;99.90;;;;;;5070547;28;20037;-67
2022/11/19 08:01:39;;;;;;;12.25;6.90;;;0.20;99.90;;;;;;5070963;28;20044;-67
2022/11/19 08:04:05;;;;;;;10.23;6.55;;;0.20;99.90;;;;;;5070138;28;20558;-67
2022/11/19 08:06:33;;;;;;;11.13;6.32;;;0.20;99.90;;;;;;5070569;28;20404;-67
2022/11/19 08:08:59;;;;;;;7.78;5.90;;;0.20;99.90;;;;;;5052774;28;20032;-67
2022/11/19 08:11:24;;;;;;;11.75;6.25;;;0.20;99.90;;;;;;5070827;28;20157;-67
2022/11/19 08:13:51;;;;;;;11.60;6.97;;;0.20;99.90;;;;;;5070121;28;20086;-66
2022/11/19 08:19:07;;;;;;;13.20;7.50;;;0.20;99.90;;;;;;5070728;28;20040;-67
2022/11/19 08:21:33;;;;;;;13.23;7.50;;;0.30;99.90;;;;;;5052804;28;20040;-67
2022/11/19 08:23:59;;;;;;;8.65;6.07;;;0.20;99.90;;;;;;5068706;28;20040;-67
2022/11/19 08:26:25;;;;;;;12.90;6.95;;;0.30;99.90;;;;;;5069263;28;20052;-67
2022/11/19 08:28:50;;;;;;;10.90;6.57;;;0.30;99.90;;;;;;5069332;28;20072;-67
2022/11/19 08:31:16;;;;;;;9.27;6.95;;;0.30;99.90;;;;;;5069059;28;20128;-67
2022/11/19 08:33:42;;;;;;;12.82;6.70;;;0.40;99.90;;;;;;5069347;28;20058;-67
2022/11/19 08:36:07;;;;;;;9.25;5.88;;;0.40;99.90;;;;;;5070540;28;20186;-67
2022/11/19 08:38:33;;;;;;;10.60;6.82;;;0.50;99.90;;;;;;5070717;28;20477;-67
2022/11/19 08:43:42;;;;;;;12.38;6.18;;;0.50;99.90;;;;;;5070072;28;20507;-68
2022/11/19 08:46:08;;;;;;;12.52;6.95;;;0.60;99.90;;;;;;5070310;28;20115;-69
2022/11/19 08:48:34;;;;;;;10.23;6.32;;;0.60;99.90;;;;;;5070393;28;20072;-66
2022/11/19 08:51:06;;;;;;;11.25;6.45;;;0.70;99.90;;;;;;5068538;28;20147;-66
2022/11/19 08:53:32;;;;;;;11.77;6.55;;;0.70;99.90;;;;;;5068722;28;20028;-66
2022/11/19 08:55:58;;;;;;;10.82;6.15;;;0.70;99.90;;;;;;5070252;28;20459;-66
2022/11/19 08:58:24;;;;;;;11.95;6.97;;;0.80;99.90;;;;;;5068715;28;20040;-66
2022/11/19 09:00:50;;;;;;;11.43;5.63;;;0.70;99.90;;;;;;5070208;28;20094;-65
2022/11/19 09:03:16;;;;;;;11.18;6.93;;;0.70;99.90;;;;;;5070868;28;20444;-65
2022/11/19 09:05:41;;;;;;;10.65;6.32;;;0.70;99.90;;;;;;5073607;28;20035;-66
2022/11/19 09:08:07;;;;;;;13.85;7.18;;;0.80;99.90;;;;;;5073735;28;20116;-66
2022/11/19 09:10:33;;;;;;;10.43;6.45;;;0.90;99.90;;;;;;5073962;28;20032;-70
2022/11/19 09:13:01;;;;;;;11.50;7.15;;;0.90;99.90;;;;;;5072140;28;20497;-66
2022/11/19 09:15:27;;;;;;;10.57;6.97;;;1.00;99.90;;;;;;5073223;28;20040;-67
2022/11/19 09:17:52;;;;;;;11.68;6.78;;;1.00;99.90;;;;;;5073444;28;20044;-67
2022/11/19 09:20:18;;;;;;;9.20;6.13;;;1.10;99.90;;;;;;5073387;28;20048;-66
2022/11/19 09:22:44;;;;;;;10.10;7.03;;;1.00;99.90;;;;;;5055542;28;20551;-66
2022/11/19 09:25:10;;;;;;;10.35;6.03;;;1.00;99.90;;;;;;5073157;28;20568;-66
2022/11/19 09:27:36;;;;;;;10.60;6.53;;;1.20;99.90;;;;;;5073631;28;20516;-66
2022/11/19 09:30:05;;;;;;;11.23;6.82;;;1.20;99.90;;;;;;5073161;28;20505;-67
2022/11/19 09:32:31;;;;;;;9.35;6.38;;;1.20;99.90;;;;;;5072171;28;20044;-66
2022/11/19 09:34:57;;;;;;;10.95;7.20;;;1.20;99.90;;;;;;5073027;28;20119;-66
2022/11/19 09:37:22;;;;;;;10.25;6.40;;;1.30;99.90;;;;;;5070351;28;20465;-66
2022/11/19 09:39:48;;;;;;;10.82;6.93;;;1.30;99.90;;;;;;5073101;28;20044;-66
2022/11/19 09:42:18;;;;;;;9.93;6.65;;;1.30;99.90;;;;;;5073236;28;20565;-66
2022/11/19 09:44:53;;;;;;;9.63;6.35;;;1.30;99.90;;;;;;5072657;28;20036;-66
2022/11/19 09:47:55;;;;;;;10.27;6.45;;;1.40;99.90;;;;;;5071778;28;20044;-68
2022/11/19 09:50:23;;;;;;;9.75;6.85;;;1.40;99.90;;;;;;5065905;28;20105;-69
2022/11/19 09:53:05;;;;;;;9.43;7.13;;;1.30;99.90;;;;;;5073206;28;20041;-69
2022/11/19 09:55:36;;;;;;;10.38;6.45;;;1.50;99.90;;;;;;5072735;28;20052;-69
2022/11/19 09:58:06;;;;;;;13.68;6.70;;;1.40;99.90;;;;;;5071506;28;20045;-69
2022/11/19 10:00:31;;;;;;;10.43;6.78;;;1.40;99.90;;;;;;5072879;28;20040;-69
2022/11/19 10:03:00;;;;;;;11.88;7.15;;;1.50;99.90;;;;;;5071681;28;20115;-69
2022/11/19 10:05:43;;;;;;;11.10;6.80;;;1.40;99.90;;;;;;5072578;28;20401;-69
2022/11/19 10:08:15;;;;;;;;;;;1.50;99.90;;;;;;5071956;28;20123;-69
2022/11/19 10:10:48;;;;;;;9.98;5.55;;;1.60;99.90;;;;;;5054620;28;20007;-69
2022/11/19 10:13:38;;;;;;;9.32;6.45;;;1.50;99.90;;;;;;5070946;28;20048;-69
2022/11/19 10:16:07;;;;;;;10.63;5.60;;;1.50;99.90;;;;;;5072297;28;20041;-69
2022/11/19 10:18:52;;;;;;;11.80;6.82;;;1.50;99.90;;;;;;5071219;28;20036;-69
2022/11/19 10:21:49;;;;;;;11.93;7.00;;;1.60;99.90;;;;;;5054370;28;20106;-69
2022/11/19 10:24:33;;;;;;;9.55;5.70;;;1.60;99.90;;;;;;5072097;28;20090;-69
2022/11/19 10:27:01;;;;;;;9.25;6.05;;;1.70;99.90;;;;;;5072226;28;20807;-69
2022/11/19 10:29:36;;;;;;;10.98;6.45;;;1.70;99.90;;;;;;5070949;28;20532;-69
2022/11/19 10:32:29;;;;;;;10.45;5.78;;;1.80;99.90;;;;;;5071848;28;20040;-69
2022/11/19 10:34:59;;;;;;;9.90;5.50;;;1.80;99.90;;;;;;5054178;28;20080;-69
2022/11/19 10:37:34;;;;;;;10.25;5.35;;;1.80;99.90;;;;;;5071951;28;20119;-69
2022/11/19 10:40:10;;;;;;;9.60;5.82;;;1.90;99.90;;;;;;5071933;28;20060;-69
2022/11/19 10:42:41;;;;;;;8.95;5.57;;;1.80;99.90;;;;;;5070229;28;20044;-69
2022/11/19 10:45:17;;;;;;;8.57;5.10;;;1.90;99.90;;;;;;5070366;28;20078;-69
2022/11/19 10:48:06;;;;;;;9.02;5.93;;;2.00;99.90;;;;;;5070874;28;20388;-69
2022/11/19 10:50:32;;;;;;;11.10;6.03;;;2.00;99.90;;;;;;5071845;28;20542;-69
2022/11/19 10:53:19;;;;;;;8.63;5.53;;;2.00;99.90;;;;;;5070656;28;20044;-69
2022/11/19 10:55:56;;;;;;;9.18;5.57;;;2.00;99.90;;;;;;5070386;28;20405;-69
2022/11/19 10:58:29;;;;;;;9.80;5.53;;;2.10;99.90;;;;;;5071234;28;20051;-66
2022/11/19 11:00:58;;;;;;;;;;;2.10;99.90;;;;;;5071892;28;20562;-66
2022/11/19 11:03:30;;;;;;;10.77;5.32;;;2.10;99.90;;;;;;5071591;28;19967;-67
2022/11/19 11:06:05;;;;;;;8.30;5.13;;;2.20;99.90;;;;;;5071180;28;20086;-66
2022/11/19 11:08:47;;;;;;;8.25;5.45;;;2.20;99.90;;;;;;5071766;28;20279;-66
2022/11/19 11:11:23;;;;;;;7.27;5.10;;;2.20;99.90;;;;;;5071303;28;20090;-66
2022/11/19 11:16:46;;;;;;;8.90;4.95;;;2.30;99.90;;;;;;5069971;28;20052;-66
2022/11/19 11:19:16;;;;;;;7.05;4.70;;;2.30;99.90;;;;;;5071426;28;20036;-66
2022/11/19 11:21:42;;;;;;;7.82;5.03;;;2.30;99.90;;;;;;5071270;28;20040;-66
2022/11/19 11:24:10;;;;;;;7.72;5.13;;;2.30;99.90;;;;;;5071003;28;20037;-66
2022/11/19 11:26:36;;;;;;;9.10;5.22;;;2.40;99.90;;;;;;5069179;28;20086;-66
2022/11/19 11:29:26;;;;;;;10.52;5.25;;;2.40;99.90;;;;;;5071206;28;20409;-66
2022/11/19 11:31:52;;;;;;;6.72;4.75;;;2.40;99.90;;;;;;5064458;28;20110;-66
2022/11/19 11:34:24;;;;;;;8.82;4.57;;;2.40;99.90;;;;;;5069380;28;20076;-66
2022/11/19 11:36:50;;;;;;;6.80;4.57;;;2.40;99.90;;;;;;5070931;28;20039;-65
2022/11/19 11:39:24;;;;;;;7.55;4.90;;;2.50;99.90;;;;;;5071159;28;20040;-65
2022/11/19 11:41:49;;;;;;;8.27;5.43;;;2.50;99.90;;;;;;5070926;28;20050;-65
2022/11/19 11:44:18;;;;;;;7.32;4.95;;;2.60;99.90;;;;;;5070723;28;20040;-65
2022/11/19 11:46:47;;;;;;;7.38;5.22;;;2.60;99.90;;;;;;5069555;28;20088;-65
2022/11/19 11:49:21;;;;;;;6.70;4.57;;;2.70;99.90;;;;;;5071032;28;20048;-65
2022/11/19 11:51:58;;;;;;;6.63;4.47;;;2.70;99.90;;;;;;5070933;28;20094;-65
2022/11/19 11:54:24;;;;;;;7.50;4.22;;;2.70;99.90;;;;;;5069710;28;20419;-65
2022/11/19 11:56:49;;;;;;;7.15;4.95;;;2.70;99.90;;;;;;5071252;28;20037;-65
2022/11/19 11:59:24;;;;;;;7.85;4.82;;;2.70;99.90;;;;;;5069494;28;20489;-64
2022/11/19 12:01:54;;;;;;;6.80;4.53;;;2.70;99.90;;;;;;5070844;28;20485;-65
2022/11/19 12:04:20;;;;;;;6.85;4.45;;;2.70;99.90;;;;;;5070444;28;20041;-66
2022/11/19 12:07:14;;;;;;;6.93;4.20;;;2.70;99.90;;;;;;5071028;28;20040;-65
2022/11/19 12:09:49;;;;;;;7.18;4.38;;;2.70;99.90;;;;;;5069311;28;20083;-65
2022/11/19 12:12:23;;;;;;;8.00;5.18;;;2.70;99.90;;;;;;5069308;28;20044;-65
2022/11/19 12:14:56;;;;;;;6.10;4.07;;;2.80;99.90;;;;;;5063257;28;20412;-65
2022/11/19 12:17:21;;;;;;;;;;;2.80;99.90;;;;;;5060716;28;20051;-65
2022/11/19 12:19:59;;;;;;;9.18;4.88;;;2.80;99.90;;;;;;5060683;28;19924;-65
2022/11/19 12:22:55;;;;;;;6.55;4.50;;;2.80;99.90;;;;;;5060558;28;20048;-65
2022/11/19 12:25:49;;;;;;;12.25;4.97;;;2.80;99.90;;;;;;5051172;28;20462;-66
2022/11/19 12:28:36;;;;;;;7.78;4.80;;;2.90;99.90;;;;;;5054302;28;20044;-65
2022/11/19 12:31:39;;;;;;;6.47;4.65;;;2.90;99.90;;;;;;5050391;28;20041;-65
2022/11/19 12:34:30;;;;;;;7.05;4.30;;;3.00;99.90;;;;;;5050399;28;20473;-66
2022/11/19 12:37:33;;;;;;;6.95;4.00;;;3.00;99.90;;;;;;5052334;28;20044;-66
2022/11/19 12:40:23;;;;;;;11.77;3.88;;;3.00;99.90;;;;;;5053007;28;20123;-66
2022/11/19 12:43:02;;;;;;;5.93;3.70;;;3.00;99.90;;;;;;5052854;28;20056;-66
2022/11/19 12:45:56;;;;;;;8.35;4.25;;;3.00;99.90;;;;;;5054043;28;20044;-66
2022/11/19 12:48:59;;;;;;;5.93;4.05;;;3.00;99.90;;;;;;5054301;28;20033;-65
2022/11/19 12:51:33;;;;;;;7.47;4.70;;;3.00;99.90;;;;;;5054043;28;20052;-65
2022/11/19 12:54:18;;;;;;;9.27;3.95;;;3.00;99.90;;;;;;5054086;28;20429;-65
2022/11/19 12:57:11;;;;;;;8.13;4.68;;;3.00;99.90;;;;;;5052647;28;20059;-65
2022/11/19 12:59:57;;;;;;;9.00;5.05;;;3.10;99.90;;;;;;5052450;28;20509;-66
2022/11/19 13:02:45;;;;;;;6.63;3.95;;;3.00;99.90;;;;;;5036217;28;20033;-65
2022/11/19 13:05:31;;;;;;;6.18;4.25;;;3.10;99.90;;;;;;5053785;28;20045;-66
2022/11/19 13:08:07;;;;;;;8.15;5.13;;;3.10;99.90;;;;;;5053936;28;20064;-66
2022/11/19 13:10:38;;;;;;;7.47;5.43;;;3.10;99.90;;;;;;5061093;28;20047;-66
2022/11/19 13:13:07;;;;;;;7.50;4.55;;;3.10;99.90;;;;;;5073312;28;20055;-66
2022/11/19 13:15:44;;;;;;;7.43;4.78;;;3.00;99.90;;;;;;5072083;28;20045;-66
2022/11/19 13:18:15;;;;;;;8.82;4.50;;;3.20;99.90;;;;;;5073290;28;20044;-66
2022/11/19 13:20:47;;;;;;;7.03;4.50;;;3.10;99.90;;;;;;5073550;28;20047;-66
2022/11/19 13:23:26;;;;;;;8.43;5.07;;;3.10;99.90;;;;;;5071825;28;20048;-66
2022/11/19 13:26:02;;;;;;;8.57;4.65;;;3.10;99.90;;;;;;5071737;28;20040;-66
2022/11/19 13:29:02;;;;;;;7.88;5.53;;;3.10;99.90;;;;;;5071837;28;20703;-66
2022/11/19 13:31:40;;;;;;;8.00;4.70;;;3.20;99.90;;;;;;5044398;28;20559;-66
2022/11/19 13:34:24;;;;;;;7.25;4.88;;;3.10;99.90;;;;;;5053501;28;20055;-66